Time,TemperatureF,DewpointF,PressureIn,WindDirection,WindDirectionDegrees,WindSpeedMPH,WindSpeedGustMPH,Humidity,HourlyPrecipIn,Conditions,Clouds,dailyrainin,SoftwareType,DateUTC
2013-01-09 00:00:00,24.4,20.0,30.33,SSE,158,0.0,0.0,83,0.00,,CLR,0.00,VWS V14.01,2013-01-09 05:00:00,
2013-01-09 00:01:00,24.4,20.0,30.33,SSE,158,0.0,0.0,83,0.00,,CLR,0.00,VWS V14.01,2013-01-09 05:01:00,
2013-01-09 00:03:00,24.4,20.0,30.33,SSE,158,0.0,0.0,83,0.00,,CLR,0.00,VWS V14.01,2013-01-09 05:03:00,
2013-01-09 00:08:00,25.0,20.6,30.33,SSE,158,0.0,1.3,83,0.00,,CLR,0.00,VWS V14.01,2013-01-09 05:08:00,
2013-01-09 00:13:00,24.6,20.5,30.33,SSE,158,0.0,0.0,84,0.00,,CLR,0.00,VWS V14.01,2013-01-09 05:13:00,
2013-01-09 00:18:00,24.6,20.5,30.30,SSE,158,0.0,0.0,84,0.00,,CLR,0.00,VWS V14.01,2013-01-09 05:18:00,
2013-01-09 00:23:00,24.6,20.8,30.30,SSE,158,0.0,0.0,85,0.00,,CLR,0.00,VWS V14.01,2013-01-09 05:23:00,
2013-01-09 00:28:00,25.0,20.8,30.30,SSE,158,0.0,0.0,84,0.00,,CLR,0.00,VWS V14.01,2013-01-09 05:28:00,
2013-01-09 00:33:00,25.2,21.3,30.33,SSE,158,0.0,1.3,85,0.00,,CLR,0.00,VWS V14.01,2013-01-09 05:33:00,
2013-01-09 00:38:00,25.0,21.7,30.33,NE,45,0.0,1.3,87,0.00,,CLR,0.00,VWS V14.01,2013-01-09 05:38:00,
2013-01-09 00:43:00,24.8,21.5,30.33,NE,45,0.0,0.0,87,0.00,,CLR,0.00,VWS V14.01,2013-01-09 05:43:00,
2013-01-09 00:48:00,24.8,21.2,30.33,NE,45,0.0,0.0,86,0.00,,CLR,0.00,VWS V14.01,2013-01-09 05:48:00,
2013-01-09 00:53:00,25.2,21.6,30.33,SE,135,0.0,0.0,86,0.00,,CLR,0.00,VWS V14.01,2013-01-09 05:53:00,
2013-01-09 00:58:00,25.7,22.6,30.33,East,90,0.0,0.0,88,0.00,,CLR,0.00,VWS V14.01,2013-01-09 05:58:00,
2013-01-09 01:03:00,25.7,22.6,30.33,NNE,22,0.0,1.1,88,0.00,,CLR,0.00,VWS V14.01,2013-01-09 06:03:00,
2013-01-09 01:08:00,25.5,22.2,30.33,NNE,22,0.0,0.0,87,0.00,,CLR,0.00,VWS V14.01,2013-01-09 06:08:00,
2013-01-09 01:13:00,25.5,22.2,30.33,SW,225,0.0,0.0,87,0.00,,CLR,0.00,VWS V14.01,2013-01-09 06:13:00,
2013-01-09 01:18:00,25.9,22.5,30.30,South,180,0.0,1.6,87,0.00,,CLR,0.00,VWS V14.01,2013-01-09 06:18:00,
2013-01-09 01:23:00,25.9,23.1,30.30,East,90,0.0,0.0,89,0.00,,CLR,0.00,VWS V14.01,2013-01-09 06:23:00,
2013-01-09 01:28:00,25.7,22.9,30.30,NW,315,0.0,1.1,89,0.00,,CLR,0.00,VWS V14.01,2013-01-09 06:28:00,
2013-01-09 01:33:00,25.7,22.6,30.33,West,270,0.0,0.0,88,0.00,,CLR,0.00,VWS V14.01,2013-01-09 06:33:00,
2013-01-09 01:38:00,26.1,23.5,30.33,ESE,112,2.2,2.5,90,0.00,,CLR,0.00,VWS V14.01,2013-01-09 06:38:00,
2013-01-09 01:43:00,26.1,23.5,30.33,NE,45,0.0,2.0,90,0.00,,CLR,0.00,VWS V14.01,2013-01-09 06:43:00,
2013-01-09 01:48:00,25.9,23.1,30.33,South,180,0.0,1.1,89,0.00,,CLR,0.00,VWS V14.01,2013-01-09 06:48:00,
2013-01-09 01:53:00,25.7,22.6,30.33,South,180,0.0,0.0,88,0.00,,CLR,0.00,VWS V14.01,2013-01-09 06:53:00,
2013-01-09 01:58:00,25.5,22.5,30.33,South,180,0.0,0.0,88,0.00,,CLR,0.00,VWS V14.01,2013-01-09 06:58:00,
2013-01-09 02:03:00,25.5,22.5,30.33,WSW,248,0.0,0.0,88,0.00,,CLR,0.00,VWS V14.01,2013-01-09 07:03:00,
2013-01-09 02:08:00,25.5,22.2,30.33,SW,225,0.0,0.0,87,0.00,,CLR,0.00,VWS V14.01,2013-01-09 07:08:00,
2013-01-09 02:13:00,25.5,22.2,30.33,West,270,0.0,0.0,87,0.00,,CLR,0.00,VWS V14.01,2013-01-09 07:13:00,
2013-01-09 02:18:00,25.9,22.8,30.33,East,90,0.0,1.1,88,0.00,,CLR,0.00,VWS V14.01,2013-01-09 07:18:00,
2013-01-09 02:23:00,25.7,22.6,30.33,NNW,338,0.0,1.3,88,0.00,,CLR,0.00,VWS V14.01,2013-01-09 07:23:00,
2013-01-09 02:28:00,25.7,22.6,30.33,SSE,158,0.9,2.7,88,0.00,,CLR,0.00,VWS V14.01,2013-01-09 07:28:00,
2013-01-09 02:33:00,25.7,22.6,30.33,SE,135,0.0,0.0,88,0.00,,CLR,0.00,VWS V14.01,2013-01-09 07:33:00,
2013-01-09 02:38:00,25.7,22.6,30.33,North,0,1.3,1.3,88,0.00,,CLR,0.00,VWS V14.01,2013-01-09 07:38:00,
2013-01-09 02:43:00,25.9,22.8,30.33,South,180,1.1,1.1,88,0.00,,CLR,0.00,VWS V14.01,2013-01-09 07:43:00,
2013-01-09 02:48:00,26.2,23.5,30.33,SSE,158,3.1,3.1,89,0.00,,CLR,0.00,VWS V14.01,2013-01-09 07:48:00,
2013-01-09 02:53:00,26.6,24.3,30.33,ESE,112,2.7,2.9,91,0.00,,CLR,0.00,VWS V14.01,2013-01-09 07:53:00,
2013-01-09 02:58:00,26.8,24.5,30.33,NE,45,0.0,2.5,91,0.00,,CLR,0.00,VWS V14.01,2013-01-09 07:58:00,
2013-01-09 03:03:00,26.2,24.0,30.33,NNW,338,0.0,1.1,91,0.00,,CLR,0.00,VWS V14.01,2013-01-09 08:03:00,
2013-01-09 03:08:00,26.2,24.0,30.33,NNW,338,0.0,0.0,91,0.00,,CLR,0.00,VWS V14.01,2013-01-09 08:08:00,
2013-01-09 03:13:00,26.1,23.5,30.33,NNW,338,0.0,0.0,90,0.00,,CLR,0.00,VWS V14.01,2013-01-09 08:13:00,
2013-01-09 03:18:00,26.2,23.7,30.33,NNW,338,0.0,0.0,90,0.00,,CLR,0.00,VWS V14.01,2013-01-09 08:18:00,
2013-01-09 03:22:00,26.4,24.1,30.33,ESE,112,1.6,1.6,91,0.00,,CLR,0.00,VWS V14.01,2013-01-09 08:22:00,
2013-01-09 03:27:00,26.6,24.1,30.33,SSW,202,0.0,0.0,90,0.00,,CLR,0.00,VWS V14.01,2013-01-09 08:27:00,